Date,TemperatureHighF,TemperatureAvgF,TemperatureLowF,DewpointHighF,DewpointAvgF,DewpointLowF,HumidityHigh,HumidityAvg,HumidityLow,PressureMaxIn,PressureMinIn,WindSpeedMaxMPH,WindSpeedAvgMPH,GustSpeedMaxMPH,PrecipitationSumIn
2013-1-1,29.1,21.3,9.3,19.5,9.8,0.4,69,61,49,30.17,30.03,8,4,15,0.01
2013-1-2,25.9,17.1,5.8,15.0,9.0,-0.6,79,70,63,30.21,30.09,7,3,13,0.00
2013-1-3,28.8,21.7,11.9,22.1,12.7,0.9,77,68,59,30.18,30.09,11,6,19,0.00
2013-1-4,28.2,24.8,19.4,21.0,15.6,11.6,74,68,59,30.21,30.07,16,11,28,0.00
2013-1-5,33.8,26.4,15.7,28.8,18.8,10.3,86,73,59,30.30,30.06,12,5,21,0.01
2013-1-6,36.1,33.6,31.9,29.6,27.5,24.0,85,78,72,30.27,29.94,12,8,22,0.01
2013-1-7,35.8,31.5,27.6,24.2,22.0,18.4,74,68,60,30.41,30.18,14,6,27,0.01
2013-1-8,38.5,29.9,23.4,25.8,21.6,17.2,80,71,58,30.27,30.18,10,4,19,0.00
2013-1-9,45.9,38.2,27.4,31.6,26.7,20.7,83,64,47,30.47,30.06,15,9,29,0.00
2013-1-10,38.7,32.2,23.7,30.6,25.2,18.7,86,76,63,30.58,30.19,7,3,13,0.04
2013-1-11,57.6,45.7,35.1,50.7,41.3,30.8,93,85,73,30.17,29.80,15,6,26,0.61
2013-1-12,58.9,51.7,46.5,50.2,46.1,42.5,91,81,71,29.96,29.85,11,6,18,0.06
2013-1-13,50.9,40.5,32.3,48.9,37.5,28.6,93,89,86,30.06,29.74,12,6,23,0.93
2013-1-14,32.1,25.7,18.5,28.1,17.1,12.3,85,70,60,30.45,30.06,14,7,24,0.00
2013-1-15,31.5,22.5,13.4,18.7,14.2,8.4,84,71,54,30.44,30.15,5,1,9,0.00
2013-1-16,37.7,29.7,21.1,23.8,19.1,15.3,81,66,46,30.14,29.85,14,6,25,0.00
2013-1-17,39.3,31.4,19.9,26.4,19.0,2.7,82,61,46,30.33,29.99,15,7,25,0.00
2013-1-18,33.3,24.6,16.5,18.1,10.6,4.8,66,55,45,30.45,30.16,12,6,29,0.00
2013-1-19,48.5,41.1,34.6,31.6,26.5,20.5,68,56,46,30.01,29.64,18,14,33,0.00
2013-1-20,42.3,24.9,18.6,31.5,8.8,0.8,69,50,40,30.20,29.62,27,14,44,0.00
2013-1-21,21.4,15.4,5.3,10.1,4.3,-3.9,70,61,51,30.16,29.97,15,8,29,0.00
2013-1-22,11.1,5.5,-2.9,1.3,-6.4,-14.6,67,57,48,30.31,30.13,10,6,18,0.00
2013-1-23,17.7,11.4,3.6,8.6,0.7,-5.4,74,62,50,30.30,30.08,12,5,19,0.00
2013-1-24,23.4,13.9,8.0,8.5,1.9,-2.5,74,59,37,30.58,30.10,8,4,14,0.02
2013-1-25,21.9,18.0,13.6,14.4,9.7,-0.1,81,70,53,30.50,30.03,9,2,16,0.00
2013-1-26,26.8,22.1,16.0,16.6,13.8,8.6,83,71,54,30.45,30.06,9,4,14,0.02
2013-1-27,29.8,20.8,8.3,25.0,13.4,2.3,85,73,57,30.49,30.14,10,3,17,0.01
2013-1-28,46.8,39.4,30.2,44.9,37.0,25.3,93,91,81,30.16,29.88,12,6,23,0.04
2013-1-29,57.6,47.8,36.0,54.1,45.2,33.7,95,91,83,30.04,29.51,12,7,24,0.66
2013-1-30,61.9,50.7,33.4,55.0,46.7,26.0,94,86,74,29.50,29.16,21,9,38,0.54
2013-1-31,33.2,23.7,16.9,24.8,12.7,6.4,75,63,48,29.90,29.31,22,15,40,0.00
2013-2-1,20.2,15.7,12.3,9.4,5.2,-0.3,75,63,52,30.29,29.90,15,11,25,0.00
2013-2-2,24.0,18.1,12.9,16.9,10.5,2.7,80,72,61,30.24,29.95,10,6,18,0.00
2013-2-3,23.3,13.8,0.4,13.6,4.8,-7.1,76,67,58,30.03,29.87,13,5,26,0.03
2013-2-4,23.5,19.5,15.5,16.8,13.5,7.8,81,77,65,30.04,29.88,2,1,5,0.01
2013-2-5,28.1,22.5,17.3,22.6,15.9,12.2,82,76,56,29.96,29.83,8,3,14,0.02
2013-2-6,33.0,22.9,9.5,23.1,12.7,2.7,83,65,47,30.31,29.96,11,3,21,0.11
2013-2-7,37.0,29.9,24.1,25.4,21.8,16.4,79,72,60,30.29,29.85,7,4,18,0.01
2013-2-8,31.5,31.2,31.0,28.0,27.0,25.7,87,84,80,29.86,29.77,6,4,19,0.09
2013-2-9,30.5,19.9,8.5,18.7,12.7,2.8,83,73,57,30.45,30.30,5,2,10,0.07
2013-2-10,42.2,30.5,18.1,36.1,23.4,13.7,85,75,63,30.30,29.71,10,4,22,0.07
2013-2-11,45.5,38.4,32.1,41.3,29.3,22.0,86,70,61,29.91,29.60,23,15,46,0.01
2013-2-12,34.8,31.9,30.7,22.9,21.3,20.1,67,64,59,30.08,29.92,14,9,24,0.00
2013-2-13,38.0,30.2,26.6,23.9,20.8,17.8,82,68,55,29.95,29.76,8,3,14,0.00
2013-2-14,41.3,35.2,27.8,33.5,28.1,22.5,82,75,66,29.88,29.71,17,8,31,0.02
2013-2-15,34.8,29.7,23.5,26.0,16.9,10.5,77,59,48,30.14,29.88,12,8,21,0.00
2013-2-16,27.9,20.9,14.3,19.9,12.0,6.2,79,68,53,30.12,29.99,12,4,22,0.05
2013-2-17,25.9,17.1,8.1,8.2,4.6,-0.4,76,59,39,30.22,30.06,12,4,21,0.00
2013-2-18,47.1,32.7,13.5,32.7,19.8,4.6,69,59,44,30.22,29.64,12,7,22,0.00
2013-2-19,45.9,28.9,18.8,39.0,20.1,7.9,87,70,55,29.97,29.46,23,14,37,0.12
2013-2-20,23.6,20.6,16.1,13.3,9.1,6.1,72,61,51,30.25,29.97,16,11,29,0.00
2013-2-21,26.0,22.8,21.2,14.7,12.3,10.6,71,64,54,30.38,30.24,10,5,18,0.00
2013-2-22,34.0,28.0,22.3,31.6,23.6,14.3,91,83,71,30.26,29.90,11,6,21,0.11
2013-2-23,35.1,30.7,24.0,29.7,20.4,14.3,84,66,55,29.95,29.90,13,8,22,0.05
2013-2-24,37.7,29.5,21.7,24.5,20.4,14.5,77,69,56,30.16,29.92,13,5,23,0.01
2013-2-25,40.1,29.5,18.1,27.0,20.2,13.5,87,69,50,30.24,30.10,6,2,12,0.01
2013-2-26,33.9,31.3,27.5,31.0,25.3,19.4,91,78,65,30.12,29.49,11,7,23,0.70
2013-2-27,36.3,33.8,32.3,32.9,31.0,29.7,92,90,84,29.61,29.45,11,6,20,0.75
2013-2-28,38.2,33.8,30.8,32.4,28.4,23.8,90,81,68,29.96,29.57,14,7,25,0.18
2013-3-1,30.7,28.0,25.8,24.0,19.3,17.0,76,70,65,30.11,29.96,11,8,19,0.00
2013-3-2,29.5,26.2,24.3,20.3,17.3,14.9,77,69,62,30.10,30.05,9,6,15,0.00
2013-3-3,31.1,24.9,18.2,15.3,13.1,10.5,74,61,46,30.07,30.00,11,6,19,0.00
2013-3-4,36.2,25.0,14.6,19.0,13.9,8.0,78,64,43,30.16,30.07,6,2,13,0.00
2013-3-5,33.8,27.4,21.6,23.7,19.5,15.4,80,72,64,30.13,29.82,12,6,25,0.00
2013-3-6,41.6,33.6,27.0,27.9,24.5,20.2,79,69,57,30.22,29.82,12,6,22,0.00
2013-3-7,39.8,34.1,27.3,29.2,24.7,16.8,83,69,56,30.40,30.21,9,4,16,0.00
2013-3-8,44.3,32.2,22.1,26.7,21.2,15.7,79,65,47,30.50,30.40,5,2,11,0.00
2013-3-9,42.8,33.1,24.3,30.5,25.4,20.3,89,74,60,30.43,30.15,9,3,15,0.00
2013-3-10,64.5,50.6,33.9,45.0,36.4,29.3,84,60,40,30.04,29.82,12,5,22,0.01
2013-3-11,57.0,50.0,37.5,47.9,41.9,30.0,90,74,52,29.84,29.50,18,10,32,0.21
2013-3-12,37.4,34.6,29.4,31.0,27.1,22.8,80,74,62,29.95,29.74,16,10,27,0.01
2013-3-13,33.4,29.8,26.4,25.5,19.2,14.2,81,65,52,30.21,29.89,17,11,28,0.00
2013-3-14,42.9,32.1,21.9,20.5,16.9,12.5,70,54,38,30.27,30.10,11,6,18,0.00
2013-3-15,44.4,36.3,30.4,33.0,27.9,19.2,87,72,60,30.10,29.87,9,5,16,0.06
2013-3-16,34.7,30.6,28.2,31.5,25.5,20.1,89,81,67,30.06,29.76,9,5,15,0.12
2013-3-17,32.7,27.3,18.0,21.9,15.6,10.4,76,62,44,30.27,30.06,12,5,21,0.09
2013-3-18,35.6,30.9,24.3,33.2,25.8,15.3,91,81,68,30.19,29.57,13,7,24,0.13
2013-3-19,34.6,28.0,23.2,30.6,17.1,12.2,85,64,54,29.97,29.66,18,13,34,0.00
2013-3-20,31.7,25.7,18.2,15.3,12.0,7.0,64,56,44,29.97,29.91,15,10,26,0.00
2013-3-21,32.3,24.6,15.7,20.2,14.9,7.9,76,66,55,29.96,29.89,14,9,22,0.00
2013-3-22,41.3,32.2,26.2,21.8,18.2,14.6,68,57,43,30.04,29.95,12,7,20,0.00
2013-3-23,41.4,31.0,21.0,24.3,19.9,15.7,84,64,45,30.11,30.03,6,2,12,0.00
2013-3-24,36.8,31.1,25.6,23.7,21.5,17.7,81,68,50,30.05,29.62,12,6,24,0.00
2013-3-25,39.2,34.1,30.5,30.7,24.5,21.1,80,68,56,29.91,29.55,14,9,25,0.00
2013-3-26,47.1,37.9,33.3,30.6,26.5,24.6,74,64,47,30.13,29.91,12,7,20,0.01
2013-3-27,49.3,38.5,28.9,28.0,24.8,21.4,79,60,39,30.22,30.13,17,9,27,0.00
2013-3-28,53.3,40.7,27.3,27.4,23.8,19.4,74,53,32,30.28,30.22,10,6,18,0.00
2013-3-29,53.7,40.6,26.7,25.1,20.9,17.7,71,48,26,30.30,30.20,7,4,13,0.00
2013-3-30,57.4,41.4,24.5,28.9,22.4,17.0,78,51,23,30.23,29.95,10,3,18,0.00
2013-3-31,59.8,47.0,35.4,42.3,33.3,27.9,83,61,31,29.95,29.65,17,7,29,0.03
2013-4-1,45.2,35.4,25.2,30.9,13.9,7.9,67,42,26,30.12,29.72,17,11,34,0.00
2013-4-2,43.0,31.8,21.0,16.7,11.1,7.7,70,44,25,30.26,30.12,14,8,29,0.00
2013-4-3,43.0,31.9,20.8,16.5,11.1,6.2,67,45,23,30.43,30.26,13,4,23,0.00
2013-4-4,55.8,37.2,19.8,20.7,13.9,8.4,70,44,15,30.38,29.97,9,3,18,0.00
2013-4-5,52.1,42.4,31.6,28.5,20.6,11.6,69,45,22,30.22,29.95,11,5,20,0.00
2013-4-6,48.7,39.0,29.3,30.9,23.0,17.3,66,54,34,30.27,29.82,14,6,23,0.00
2013-4-7,59.5,54.7,41.7,44.0,35.6,21.6,64,49,29,30.04,29.66,20,11,35,0.00
2013-4-8,69.1,47.9,34.3,55.2,39.4,27.8,92,73,57,30.07,29.73,18,6,33,0.12
2013-4-9,56.2,46.9,37.3,45.2,40.6,34.2,91,79,65,30.11,29.89,9,3,16,0.00
2013-4-10,48.8,44.2,41.5,44.2,41.0,38.6,92,89,82,29.99,29.85,10,5,18,0.45
2013-4-11,41.5,38.6,36.6,39.1,35.7,33.2,92,89,85,30.00,29.62,12,8,25,1.28
2013-4-12,42.0,39.3,36.8,38.9,34.3,30.5,92,83,66,29.82,29.54,15,8,28,0.31
2013-4-13,42.8,39.6,37.5,35.6,30.0,26.1,82,68,55,30.01,29.81,16,9,29,0.00
2013-4-14,47.5,39.9,31.5,33.9,30.2,26.1,86,69,57,30.14,29.96,9,3,17,0.01
2013-4-15,69.2,54.9,35.7,52.0,43.9,32.1,90,68,51,29.99,29.89,13,6,26,0.00
2013-4-16,62.3,55.7,49.2,51.1,44.9,35.2,90,69,46,30.23,29.89,10,5,19,0.34
2013-4-17,55.6,48.5,42.3,40.4,34.7,30.2,84,59,49,30.34,30.06,9,6,19,0.12
2013-4-18,78.8,57.4,44.0,62.9,49.9,39.4,93,78,54,30.07,29.64,22,10,44,0.21
2013-4-19,59.5,45.4,36.7,57.5,38.7,27.5,94,78,62,29.80,29.38,22,12,40,0.23
2013-4-20,43.1,36.6,29.4,29.0,23.1,17.0,82,59,44,30.45,29.80,16,10,30,0.02
2013-4-21,45.3,36.1,24.7,29.7,23.3,17.1,84,61,37,30.63,30.45,9,3,19,0.00
2013-4-22,58.6,45.2,31.0,38.4,30.8,25.6,88,61,30,30.48,30.21,8,2,16,0.00
2013-4-23,71.2,54.1,36.2,52.7,40.7,31.3,92,64,33,30.21,29.82,14,5,30,0.31
2013-4-24,55.4,42.3,35.7,53.3,37.7,25.7,93,84,63,30.17,29.74,12,8,23,0.47
2013-4-25,50.9,41.2,31.9,40.3,30.6,24.6,81,67,46,30.36,30.14,17,7,29,0.12
2013-4-26,57.1,43.7,28.5,38.7,32.0,23.8,87,65,42,30.48,30.36,8,3,17,0.00
2013-4-27,66.6,51.0,34.2,42.5,36.1,30.7,91,61,33,30.39,30.12,8,2,17,0.00
2013-4-28,53.5,50.9,46.6,51.5,45.8,33.4,93,83,60,30.12,29.85,7,2,14,0.22
2013-4-29,68.5,58.4,51.6,56.0,52.2,49.6,94,81,58,29.97,29.85,5,2,11,0.01
2013-4-30,70.3,60.4,50.1,56.7,52.3,46.8,91,75,60,30.10,29.97,13,4,23,0.00
2013-5-1,78.0,62.5,47.7,61.7,52.2,44.9,94,71,46,30.26,30.09,9,3,18,0.00
2013-5-2,76.0,63.1,52.3,57.0,49.5,42.3,82,63,47,30.27,30.16,9,4,19,0.00
2013-5-3,73.3,63.4,52.6,57.5,46.9,37.0,78,57,29,30.16,30.07,10,4,21,0.00
2013-5-4,68.3,60.8,53.5,47.9,42.8,35.5,76,53,34,30.15,30.07,9,5,20,0.00
2013-5-5,69.2,60.4,52.1,45.7,41.7,33.3,74,52,27,30.12,30.04,8,4,17,0.00
2013-5-6,69.7,59.5,47.8,49.6,44.0,38.4,72,57,42,30.08,30.00,8,3,16,0.00
2013-5-7,73.2,60.6,48.0,55.5,48.0,38.2,78,64,48,30.08,30.01,8,2,17,0.00
2013-5-8,77.8,63.7,52.2,57.2,50.6,44.0,90,65,41,30.04,29.95,10,2,17,0.07
2013-5-9,80.0,64.8,48.4,59.4,52.5,46.2,95,68,37,30.00,29.93,7,2,14,0.02
2013-5-10,75.0,62.0,45.2,60.4,54.2,38.1,94,77,53,29.96,29.77,13,7,25,0.26
2013-5-11,59.5,48.3,38.1,47.3,40.5,31.1,84,75,55,29.94,29.78,16,7,29,0.04
2013-5-12,50.9,42.0,33.3,32.7,28.7,22.2,81,61,41,30.12,29.92,18,9,29,0.00
2013-5-13,55.5,43.0,27.1,30.8,23.8,17.1,81,51,23,30.19,30.11,9,3,24,0.00
2013-5-14,78.5,59.0,40.8,53.7,41.0,28.1,74,53,35,30.13,29.75,10,4,23,0.00
2013-5-15,84.4,73.7,57.4,58.1,50.6,41.9,86,48,25,29.82,29.63,17,8,31,0.00
2013-5-16,83.4,68.9,50.1,49.5,44.7,38.2,73,45,24,30.03,29.81,8,3,20,0.00
2013-5-17,72.4,60.6,49.1,49.4,42.2,34.3,68,51,39,30.17,30.04,8,3,18,0.00
2013-5-18,75.7,62.7,52.1,54.6,45.9,36.0,68,55,37,30.17,30.08,7,3,15,0.00
2013-5-19,84.7,67.6,51.0,65.4,55.6,44.7,82,67,47,30.08,29.94,7,2,15,0.00
2013-5-20,89.5,75.2,58.1,70.7,62.3,55.6,95,68,40,29.97,29.82,14,4,26,0.00
2013-5-21,86.1,78.0,70.3,66.1,61.2,56.8,80,58,37,29.86,29.75,13,6,27,0.00
2013-5-22,81.7,71.6,67.7,64.0,60.2,56.5,79,68,43,29.79,29.67,17,6,30,0.02
2013-5-23,68.7,56.5,43.8,60.5,52.3,38.3,93,86,69,30.16,29.74,13,6,30,0.26
2013-5-24,57.3,48.2,40.7,40.6,36.5,32.8,92,66,45,30.36,30.17,10,5,19,0.00
2013-5-25,66.0,52.1,35.1,40.8,35.3,30.5,87,57,31,30.42,30.29,6,2,14,0.00
2013-5-26,69.7,55.5,36.3,40.8,35.3,30.8,86,51,25,30.37,30.24,6,1,14,0.00
2013-5-27,58.6,51.8,46.2,51.2,43.1,33.0,92,73,50,30.29,30.03,6,2,15,0.69
2013-5-28,77.4,64.9,53.1,69.6,60.1,50.9,94,85,68,30.02,29.85,10,4,20,0.21
2013-5-29,85.3,76.3,67.4,66.5,63.7,60.3,89,66,48,30.03,29.85,17,7,30,0.00
2013-5-30,87.5,74.4,64.8,73.1,65.6,60.1,94,76,49,30.10,29.99,16,4,34,0.43
2013-5-31,81.3,72.8,66.9,70.3,66.1,63.2,93,80,63,30.04,29.91,13,5,31,0.22
2013-6-1,78.7,70.6,63.0,66.7,63.6,60.8,94,80,59,29.93,29.74,12,6,23,0.29
2013-6-2,74.5,66.8,56.5,65.1,57.7,46.4,92,73,58,30.00,29.71,11,7,22,0.01
2013-6-3,67.3,58.1,45.2,46.3,40.9,36.8,78,55,34,30.11,30.00,7,3,13,0.00
2013-6-4,69.4,59.1,46.1,51.8,46.3,36.3,91,65,43,30.22,30.11,6,1,14,0.00
2013-6-5,72.4,61.2,51.8,50.2,44.2,35.2,75,54,40,30.20,30.01,7,2,17,0.00
2013-6-6,70.0,60.9,53.1,53.5,47.9,40.9,78,63,51,30.02,29.87,7,3,14,0.00
2013-6-7,63.0,57.3,49.9,52.1,49.7,45.6,88,76,66,29.94,29.89,6,2,11,0.00
2013-6-8,73.4,63.2,55.8,55.1,52.4,50.7,85,69,47,30.10,29.93,5,1,12,0.00
2013-6-9,74.2,65.8,56.8,60.5,56.6,53.6,92,73,54,30.14,29.98,8,3,22,0.05
2013-6-10,71.7,65.6,60.9,67.2,63.2,58.8,96,92,82,29.98,29.76,6,1,12,0.78
2013-6-11,81.5,72.1,64.0,66.8,64.4,62.0,95,78,57,29.93,29.79,8,4,15,0.00
2013-6-12,78.4,70.5,62.0,68.7,64.3,59.2,93,81,67,29.96,29.66,5,1,14,0.02
2013-6-13,67.1,66.9,66.8,63.8,63.7,63.6,90,89,89,29.67,29.66,2,1,9,0.00